High Force — 3FMA2 — position and weather

sailwx.info

Track history (hours):
 
Tides and Currents Weather Stations Pressure Air Temp Water Temp Dewpoint Dewpoint Depression Visibility Wind Speed Wind Dir Waves Ship Positions

High Force

Last reported at 2017-Sep-14 16:44 UTC. Time now 2017-Sep-19 17:17 UTC.
Position N 31°47' W 016°22'.

Length 186 m; draft 10.2 m.

Type: Tanker. MMSI: 351838000.

Date/timePositionNaut miles runAvg speedWind from/ knotsBaromVisibWave heightAir tempDewpointWater temp
2017-Sep-14 16:44N 31°47' W 016°22'313.7
2017-Sep-14 16:30N 31°48' W 016°19'1013.6
2017-Sep-14 15:47N 31°52' W 016°08'413.6
2017-Sep-14 15:30N 31°53' W 016°04'4413.8
2017-Sep-14 12:18N 32°09' W 015°14'413.9
2017-Sep-14 12:00N 32°10' W 015°10'713.8
2017-Sep-14 11:30N 32°12' W 015°02'813.8
2017-Sep-14 10:54N 32°15' W 014°53'513.9
2017-Sep-14 10:30N 32°17' W 014°47'713.8
2017-Sep-14 09:58N 32°20' W 014°39'713.9
2017-Sep-14 09:28N 32°22' W 014°31'1513.5
2017-Sep-14 08:23N 32°26' W 014°14'513.3
2017-Sep-14 07:59N 32°27' W 014°08'613.3
2017-Sep-14 07:30N 32°29' W 014°01'713.5
2017-Sep-14 06:59N 32°34' W 013°54'713.6
2017-Sep-14 06:30N 32°38' W 013°48'713.6
2017-Sep-14 05:58N 32°42' W 013°42'713.6
2017-Sep-14 05:29N 32°47' W 013°36'613.7
2017-Sep-14 05:00N 32°51' W 013°30'713.7
2017-Sep-14 04:30N 32°55' W 013°24'713.5
2017-Sep-14 03:59N 32°60' W 013°18'713.3
2017-Sep-14 03:30N 33°04' W 013°12'713.4
2017-Sep-14 02:58N 33°09' W 013°05'613.4
2017-Sep-14 02:30N 33°13' W 012°59'713.5
2017-Sep-14 02:00N 33°17' W 012°53'813.6
2017-Sep-14 01:24N 33°22' W 012°46'513.7
2017-Sep-14 01:00N 33°26' W 012°41'713.8
2017-Sep-14 00:30N 33°30' W 012°35'713.8
2017-Sep-14 00:00N 33°36' W 012°29'713.7
2017-Sep-13 23:28N 33°41' W 012°24'913.6
2017-Sep-13 22:49N 33°48' W 012°17'1513.6
2017-Sep-13 21:44N 33°60' W 012°06'513.7
2017-Sep-13 21:22N 34°03' W 012°02'1013.8
2017-Sep-13 20:37N 34°12' W 011°54'413.5
2017-Sep-13 20:21N 34°14' W 011°51'613.6
2017-Sep-13 19:55N 34°18' W 011°46'613.7
2017-Sep-13 19:30N 34°23' W 011°42'713.7
2017-Sep-13 19:00N 34°28' W 011°36'713.7
2017-Sep-13 18:30N 34°34' W 011°31'713.6
2017-Sep-13 18:00N 34°39' W 011°26'713.6
2017-Sep-13 17:30N 34°44' W 011°21'713.8
2017-Sep-13 17:00N 34°50' W 011°15'813.8
2017-Sep-13 16:27N 34°55' W 011°10'1013.5
2017-Sep-13 15:43N 35°03' W 011°02'513.4
2017-Sep-13 15:22N 35°07' W 010°58'513.9
2017-Sep-13 15:00N 35°09' W 010°53'713.8
2017-Sep-13 14:30N 35°13' W 010°45'813.9
2017-Sep-13 13:57N 35°17' W 010°37'614.1
2017-Sep-13 13:30N 35°20' W 010°31'714.1
2017-Sep-13 13:00N 35°23' W 010°23'714.1
2017-Sep-13 12:29N 35°27' W 010°16'814.0
2017-Sep-13 11:54N 35°31' W 010°07'2413.8
2017-Sep-13 10:11N 35°47' W 009°46'313.7
2017-Sep-13 09:58N 35°48' W 009°42'613.1
2017-Sep-13 09:30N 35°50' W 009°35'713.4
2017-Sep-13 09:00N 35°52' W 009°27'713.3
2017-Sep-13 08:30N 35°56' W 009°20'612.5
2017-Sep-13 08:00N 35°58' W 009°13'612.7
2017-Sep-13 07:30N 35°58' W 009°05'612.8
2017-Sep-13 07:00N 35°58' W 008°57'612.6
2017-Sep-13 06:30N 35°58' W 008°49'612.7
2017-Sep-13 06:00N 35°58' W 008°42'713.0
2017-Sep-13 05:30N 35°57' W 008°34'713.1
2017-Sep-13 05:00N 35°57' W 008°25'713.1
2017-Sep-13 04:30N 35°57' W 008°17'713.4
2017-Sep-13 04:00N 35°57' W 008°09'713.5
2017-Sep-13 03:30N 35°57' W 008°01'713.1
2017-Sep-13 03:00N 35°57' W 007°53'713.5
2017-Sep-13 02:30N 35°57' W 007°44'713.7
2017-Sep-13 01:59N 35°58' W 007°36'714.1
2017-Sep-13 01:31N 35°58' W 007°27'714.4
2017-Sep-13 01:01N 35°58' W 007°18'714.3
2017-Sep-13 00:31N 35°58' W 007°09'714.4
2017-Sep-13 00:01N 35°58' W 007°01'6813.0
2017-Sep-12 18:45N 35°58' W 005°36'311.7
2017-Sep-12 18:29N 35°59' W 005°32'510.8
2017-Sep-12 18:00N 36°00' W 005°26'5 9.1
2017-Sep-12 17:30N 36°04' W 005°23'4 7.8
2017-Sep-12 17:00N 36°08' W 005°24'0 0.9
2017-Sep-12 16:28N 36°08' W 005°25'0 0.0
2017-Sep-12 15:55N 36°08' W 005°25'0 0.1
2017-Sep-12 15:28N 36°08' W 005°25'0 0.0
2017-Sep-12 14:58N 36°08' W 005°25'0 0.1
2017-Sep-12 14:25N 36°08' W 005°25'0 0.6
2017-Sep-12 13:58N 36°08' W 005°25'0 0.2
2017-Sep-12 13:28N 36°08' W 005°25'0 0.0
2017-Sep-12 11:25N 36°08' W 005°25'0 0.1
2017-Sep-12 10:58N 36°08' W 005°25'0 0.0
2017-Sep-12 10:28N 36°08' W 005°25'0 0.0
2017-Sep-12 09:58N 36°08' W 005°25'0 0.0
2017-Sep-12 09:28N 36°08' W 005°25'0 0.0
2017-Sep-12 08:58N 36°08' W 005°25'0 0.1
2017-Sep-12 08:16N 36°08' W 005°25'0 0.3
2017-Sep-12 07:54N 36°08' W 005°25'2 4.4
2017-Sep-12 07:29N 36°08' W 005°22'0 0.5
2017-Sep-12 06:58N 36°08' W 005°22'0 0.1
2017-Sep-12 06:28N 36°08' W 005°22'0 0.2
2017-Sep-12 05:58N 36°08' W 005°22'0 0.0
2017-Sep-12 05:25N 36°08' W 005°22'0 0.1
2017-Sep-12 04:55N 36°08' W 005°22'0 0.0
2017-Sep-12 04:28N 36°08' W 005°22'0 0.1
2017-Sep-12 03:58N 36°08' W 005°22'0 0.1
2017-Sep-12 03:28N 36°08' W 005°22'0 0.0
2017-Sep-12 02:55N 36°08' W 005°22'0 0.0
2017-Sep-12 02:28N 36°08' W 005°22'0 0.1
2017-Sep-12 01:58N 36°08' W 005°22'0 0.0
2017-Sep-12 01:28N 36°08' W 005°22'0 0.5
2017-Sep-12 00:58N 36°08' W 005°22'0 0.2
2017-Sep-12 00:28N 36°08' W 005°22'0 0.1
2017-Sep-11 23:58N 36°08' W 005°22'0 0.0
2017-Sep-11 23:28N 36°08' W 005°22'0 0.0
2017-Sep-11 22:58N 36°08' W 005°22'0 0.0
2017-Sep-11 22:28N 36°08' W 005°22'0 0.0
2017-Sep-11 22:00N 36°08' W 005°22'0 0.0
2017-Sep-11 21:30N 36°08' W 005°22'0 0.1
2017-Sep-11 21:00N 36°08' W 005°22'2 4.3
2017-Sep-11 20:30N 36°06' W 005°22'2 3.7
2017-Sep-11 20:00N 36°05' W 005°19'3 6.2
2017-Sep-11 19:30N 36°05' W 005°16'4 8.1
2017-Sep-11 19:00N 36°06' W 005°11'610.9
2017-Sep-11 18:28N 36°07' W 005°04'3 5.5
2017-Sep-11 17:59N 36°09' W 005°06'3 5.9
2017-Sep-11 17:23N 36°11' W 005°09'1 3.2
2017-Sep-11 17:00N 36°11' W 005°11'2 4.9
2017-Sep-11 16:30N 36°09' W 005°13'1 2.4
2017-Sep-11 16:00N 36°08' W 005°13'2 4.8
2017-Sep-11 15:30N 36°07' W 005°11'1 1.2
2017-Sep-11 15:00N 36°06' W 005°12'0 0.8
2017-Sep-11 14:30N 36°06' W 005°12'0 0.4
2017-Sep-11 14:00N 36°06' W 005°12'2 4.3
2017-Sep-11 13:25N 36°08' W 005°10'3 7.5
2017-Sep-11 13:01N 36°09' W 005°06'20512.3
2017-Sep-10 20:20N 37°15' W 001°04'412.0
2017-Sep-10 20:00N 37°17' W 001°00'612.6
2017-Sep-10 19:30N 37°20' W 000°53'713.1
2017-Sep-10 19:00N 37°24' W 000°47'713.3
2017-Sep-10 18:30N 37°28' W 000°41'713.6
2017-Sep-10 18:00N 37°33' W 000°35'713.6
2017-Sep-10 17:30N 37°39' W 000°30'713.6
2017-Sep-10 17:00N 37°45' W 000°26'713.7
2017-Sep-10 16:30N 37°51' W 000°21'714.0
2017-Sep-10 16:01N 37°56' W 000°16'12313.7
2017-Sep-10 07:03N 39°38' E 001°11'114.0
2017-Sep-10 06:59N 39°39' E 001°11'714.0
2017-Sep-10 06:30N 39°45' E 001°15'714.2
2017-Sep-10 06:00N 39°52' E 001°19'714.2
2017-Sep-10 05:30N 39°58' E 001°23'714.1
2017-Sep-10 05:00N 40°05' E 001°26'714.2
2017-Sep-10 04:30N 40°11' E 001°30'714.1
2017-Sep-10 04:00N 40°18' E 001°34'714.0
2017-Sep-10 03:30N 40°24' E 001°38'713.6
2017-Sep-10 03:00N 40°30' E 001°42'713.6
2017-Sep-10 02:30N 40°36' E 001°46'713.6
2017-Sep-10 02:01N 40°42' E 001°49'713.6
2017-Sep-10 01:30N 40°49' E 001°53'713.5
2017-Sep-10 01:00N 40°55' E 001°57'713.6
2017-Sep-10 00:30N 41°01' E 002°01'713.2
2017-Sep-10 00:00N 41°07' E 002°04'  
2017-Sep-07 18:29N 41°20' E 002°10'3 4.3
2017-Sep-07 17:48N 41°18' E 002°12'1 0.2
2017-Sep-07 11:28N 41°19' E 002°11'0 0.0
2017-Sep-07 10:58N 41°19' E 002°11'0 0.0
2017-Sep-07 07:49N 41°18' E 002°11'0 0.1
2017-Sep-07 07:19N 41°19' E 002°11'0 0.1
2017-Sep-07 06:59N 41°19' E 002°11'0 0.1
2017-Sep-07 05:09N 41°19' E 002°11'0 0.1
2017-Sep-07 03:54N 41°19' E 002°11'0 0.0
2017-Sep-07 03:24N 41°19' E 002°11'0 0.0
2017-Sep-07 02:54N 41°19' E 002°11'0 0.0
2017-Sep-07 02:30N 41°19' E 002°11'0 0.0
2017-Sep-07 00:24N 41°19' E 002°11'0 0.0
2017-Sep-06 23:57N 41°19' E 002°11'0 0.0
2017-Sep-06 20:06N 41°19' E 002°11'0 0.0
2017-Sep-06 19:45N 41°19' E 002°11'0 0.0
2017-Sep-06 04:18N 41°19' E 002°11'0 0.0
2017-Sep-06 02:48N 41°19' E 002°11'0 0.0
2017-Sep-06 01:30N 41°19' E 002°11'0 0.0
2017-Sep-06 00:42N 41°19' E 002°11'0 0.0
2017-Sep-06 00:18N 41°19' E 002°11'0 0.0
2017-Sep-05 23:54N 41°19' E 002°11'0 0.0
2017-Sep-05 23:30N 41°19' E 002°11'0 0.0
2017-Sep-05 22:54N 41°19' E 002°11'0 0.0
2017-Sep-05 22:24N 41°19' E 002°11'0 0.0
2017-Sep-05 22:00N 41°19' E 002°11'0 0.0
2017-Sep-05 21:24N 41°19' E 002°11'0 0.0
2017-Sep-05 20:54N 41°19' E 002°11'0 0.0
2017-Sep-05 20:09N 41°19' E 002°11'0 0.0
2017-Sep-05 19:00N 41°19' E 002°11'0 0.0
2017-Sep-05 18:27N 41°19' E 002°11'0 0.0
2017-Sep-05 18:00N 41°19' E 002°11'0 0.0
2017-Sep-05 17:30N 41°19' E 002°11'0 0.0
2017-Sep-05 17:00N 41°19' E 002°11'0 0.0
2017-Sep-05 16:27N 41°19' E 002°11'0 0.0
2017-Sep-05 15:36N 41°19' E 002°11'0 0.1
2017-Sep-05 15:30N 41°19' E 002°11'0 0.0
2017-Sep-05 14:54N 41°19' E 002°11'0 0.0
2017-Sep-05 14:27N 41°19' E 002°11'0 0.0
2017-Sep-05 14:00N 41°19' E 002°11'0 0.0
2017-Sep-05 13:25N 41°19' E 002°11'0 0.0
2017-Sep-05 12:59N 41°19' E 002°11'0 0.0
2017-Sep-05 12:30N 41°19' E 002°11'0 0.0
2017-Sep-05 12:00N 41°19' E 002°11'0 0.0
2017-Sep-05 11:29N 41°19' E 002°11'0 0.9
2017-Sep-05 10:59N 41°19' E 002°12'3 5.4
2017-Sep-05 10:29N 41°16' E 002°14'6 9.7
2017-Sep-05 09:53N 41°14' E 002°21'514.0
2017-Sep-05 09:31N 41°12' E 002°28'713.8
2017-Sep-05 09:00N 41°09' E 002°36'713.7
2017-Sep-05 08:29N 41°06' E 002°45'713.4
2017-Sep-05 08:00N 41°03' E 002°52'713.3
2017-Sep-05 07:30N 41°00' E 002°60'713.4
2017-Sep-05 06:57N 40°57' E 003°08'613.4
2017-Sep-05 06:30N 40°54' E 003°16'713.3
2017-Sep-05 06:00N 40°51' E 003°24'612.8
2017-Sep-05 05:30N 40°51' E 003°32'  
Track history (hours):
 
Tides and Currents Weather Stations Pressure Air Temp Water Temp Dewpoint Dewpoint Depression Visibility Wind Speed Wind Dir Waves Ship Positions

High Force

Last reported at 2017-Sep-14 16:44 UTC. Time now 2017-Sep-19 17:17 UTC.
Position N 31°47' W 016°22'.

Length 186 m; draft 10.2 m.

Type: Tanker. MMSI: 351838000.

Date/timePositionNaut miles runAvg speedWind from/ knotsBaromVisibWave heightAir tempDewpointWater temp
2017-Sep-14 16:44N 31°47' W 016°22'313.7
2017-Sep-14 16:30N 31°48' W 016°19'1013.6
2017-Sep-14 15:47N 31°52' W 016°08'413.6
2017-Sep-14 15:30N 31°53' W 016°04'4413.8
2017-Sep-14 12:18N 32°09' W 015°14'413.9
2017-Sep-14 12:00N 32°10' W 015°10'713.8
2017-Sep-14 11:30N 32°12' W 015°02'813.8
2017-Sep-14 10:54N 32°15' W 014°53'513.9
2017-Sep-14 10:30N 32°17' W 014°47'713.8
2017-Sep-14 09:58N 32°20' W 014°39'713.9
2017-Sep-14 09:28N 32°22' W 014°31'1513.5
2017-Sep-14 08:23N 32°26' W 014°14'513.3
2017-Sep-14 07:59N 32°27' W 014°08'613.3
2017-Sep-14 07:30N 32°29' W 014°01'713.5
2017-Sep-14 06:59N 32°34' W 013°54'713.6
2017-Sep-14 06:30N 32°38' W 013°48'713.6
2017-Sep-14 05:58N 32°42' W 013°42'713.6
2017-Sep-14 05:29N 32°47' W 013°36'613.7
2017-Sep-14 05:00N 32°51' W 013°30'713.7
2017-Sep-14 04:30N 32°55' W 013°24'713.5
2017-Sep-14 03:59N 32°60' W 013°18'713.3
2017-Sep-14 03:30N 33°04' W 013°12'713.4
2017-Sep-14 02:58N 33°09' W 013°05'613.4
2017-Sep-14 02:30N 33°13' W 012°59'713.5
2017-Sep-14 02:00N 33°17' W 012°53'813.6
2017-Sep-14 01:24N 33°22' W 012°46'513.7
2017-Sep-14 01:00N 33°26' W 012°41'713.8
2017-Sep-14 00:30N 33°30' W 012°35'713.8
2017-Sep-14 00:00N 33°36' W 012°29'713.7
2017-Sep-13 23:28N 33°41' W 012°24'913.6
2017-Sep-13 22:49N 33°48' W 012°17'1513.6
2017-Sep-13 21:44N 33°60' W 012°06'513.7
2017-Sep-13 21:22N 34°03' W 012°02'1013.8
2017-Sep-13 20:37N 34°12' W 011°54'413.5
2017-Sep-13 20:21N 34°14' W 011°51'613.6
2017-Sep-13 19:55N 34°18' W 011°46'613.7
2017-Sep-13 19:30N 34°23' W 011°42'713.7
2017-Sep-13 19:00N 34°28' W 011°36'713.7
2017-Sep-13 18:30N 34°34' W 011°31'713.6
2017-Sep-13 18:00N 34°39' W 011°26'713.6
2017-Sep-13 17:30N 34°44' W 011°21'713.8
2017-Sep-13 17:00N 34°50' W 011°15'813.8
2017-Sep-13 16:27N 34°55' W 011°10'1013.5
2017-Sep-13 15:43N 35°03' W 011°02'513.4
2017-Sep-13 15:22N 35°07' W 010°58'513.9
2017-Sep-13 15:00N 35°09' W 010°53'713.8
2017-Sep-13 14:30N 35°13' W 010°45'813.9
2017-Sep-13 13:57N 35°17' W 010°37'614.1
2017-Sep-13 13:30N 35°20' W 010°31'714.1
2017-Sep-13 13:00N 35°23' W 010°23'714.1
2017-Sep-13 12:29N 35°27' W 010°16'814.0
2017-Sep-13 11:54N 35°31' W 010°07'2413.8
2017-Sep-13 10:11N 35°47' W 009°46'313.7
2017-Sep-13 09:58N 35°48' W 009°42'613.1
2017-Sep-13 09:30N 35°50' W 009°35'713.4
2017-Sep-13 09:00N 35°52' W 009°27'713.3
2017-Sep-13 08:30N 35°56' W 009°20'612.5
2017-Sep-13 08:00N 35°58' W 009°13'612.7
2017-Sep-13 07:30N 35°58' W 009°05'612.8
2017-Sep-13 07:00N 35°58' W 008°57'612.6
2017-Sep-13 06:30N 35°58' W 008°49'612.7
2017-Sep-13 06:00N 35°58' W 008°42'713.0
2017-Sep-13 05:30N 35°57' W 008°34'713.1
2017-Sep-13 05:00N 35°57' W 008°25'713.1
2017-Sep-13 04:30N 35°57' W 008°17'713.4
2017-Sep-13 04:00N 35°57' W 008°09'713.5
2017-Sep-13 03:30N 35°57' W 008°01'713.1
2017-Sep-13 03:00N 35°57' W 007°53'713.5
2017-Sep-13 02:30N 35°57' W 007°44'713.7
2017-Sep-13 01:59N 35°58' W 007°36'714.1
2017-Sep-13 01:31N 35°58' W 007°27'714.4
2017-Sep-13 01:01N 35°58' W 007°18'714.3
2017-Sep-13 00:31N 35°58' W 007°09'714.4
2017-Sep-13 00:01N 35°58' W 007°01'6813.0
2017-Sep-12 18:45N 35°58' W 005°36'311.7
2017-Sep-12 18:29N 35°59' W 005°32'510.8
2017-Sep-12 18:00N 36°00' W 005°26'5 9.1
2017-Sep-12 17:30N 36°04' W 005°23'4 7.8
2017-Sep-12 17:00N 36°08' W 005°24'0 0.9
2017-Sep-12 16:28N 36°08' W 005°25'0 0.0
2017-Sep-12 15:55N 36°08' W 005°25'0 0.1
2017-Sep-12 15:28N 36°08' W 005°25'0 0.0
2017-Sep-12 14:58N 36°08' W 005°25'0 0.1
2017-Sep-12 14:25N 36°08' W 005°25'0 0.6
2017-Sep-12 13:58N 36°08' W 005°25'0 0.2
2017-Sep-12 13:28N 36°08' W 005°25'0 0.0
2017-Sep-12 11:25N 36°08' W 005°25'0 0.1
2017-Sep-12 10:58N 36°08' W 005°25'0 0.0
2017-Sep-12 10:28N 36°08' W 005°25'0 0.0
2017-Sep-12 09:58N 36°08' W 005°25'0 0.0
2017-Sep-12 09:28N 36°08' W 005°25'0 0.0
2017-Sep-12 08:58N 36°08' W 005°25'0 0.1
2017-Sep-12 08:16N 36°08' W 005°25'0 0.3
2017-Sep-12 07:54N 36°08' W 005°25'2 4.4
2017-Sep-12 07:29N 36°08' W 005°22'0 0.5
2017-Sep-12 06:58N 36°08' W 005°22'0 0.1
2017-Sep-12 06:28N 36°08' W 005°22'0 0.2
2017-Sep-12 05:58N 36°08' W 005°22'0 0.0
2017-Sep-12 05:25N 36°08' W 005°22'0 0.1
2017-Sep-12 04:55N 36°08' W 005°22'0 0.0
2017-Sep-12 04:28N 36°08' W 005°22'0 0.1
2017-Sep-12 03:58N 36°08' W 005°22'0 0.1
2017-Sep-12 03:28N 36°08' W 005°22'0 0.0
2017-Sep-12 02:55N 36°08' W 005°22'0 0.0
2017-Sep-12 02:28N 36°08' W 005°22'0 0.1
2017-Sep-12 01:58N 36°08' W 005°22'0 0.0
2017-Sep-12 01:28N 36°08' W 005°22'0 0.5
2017-Sep-12 00:58N 36°08' W 005°22'0 0.2
2017-Sep-12 00:28N 36°08' W 005°22'0 0.1
2017-Sep-11 23:58N 36°08' W 005°22'0 0.0
2017-Sep-11 23:28N 36°08' W 005°22'0 0.0
2017-Sep-11 22:58N 36°08' W 005°22'0 0.0
2017-Sep-11 22:28N 36°08' W 005°22'0 0.0
2017-Sep-11 22:00N 36°08' W 005°22'0 0.0
2017-Sep-11 21:30N 36°08' W 005°22'0 0.1
2017-Sep-11 21:00N 36°08' W 005°22'2 4.3
2017-Sep-11 20:30N 36°06' W 005°22'2 3.7
2017-Sep-11 20:00N 36°05' W 005°19'3 6.2
2017-Sep-11 19:30N 36°05' W 005°16'4 8.1
2017-Sep-11 19:00N 36°06' W 005°11'610.9
2017-Sep-11 18:28N 36°07' W 005°04'3 5.5
2017-Sep-11 17:59N 36°09' W 005°06'3 5.9
2017-Sep-11 17:23N 36°11' W 005°09'1 3.2
2017-Sep-11 17:00N 36°11' W 005°11'2 4.9
2017-Sep-11 16:30N 36°09' W 005°13'1 2.4
2017-Sep-11 16:00N 36°08' W 005°13'2 4.8
2017-Sep-11 15:30N 36°07' W 005°11'1 1.2
2017-Sep-11 15:00N 36°06' W 005°12'0 0.8
2017-Sep-11 14:30N 36°06' W 005°12'0 0.4
2017-Sep-11 14:00N 36°06' W 005°12'2 4.3
2017-Sep-11 13:25N 36°08' W 005°10'3 7.5
2017-Sep-11 13:01N 36°09' W 005°06'20512.3
2017-Sep-10 20:20N 37°15' W 001°04'412.0
2017-Sep-10 20:00N 37°17' W 001°00'612.6
2017-Sep-10 19:30N 37°20' W 000°53'713.1
2017-Sep-10 19:00N 37°24' W 000°47'713.3
2017-Sep-10 18:30N 37°28' W 000°41'713.6
2017-Sep-10 18:00N 37°33' W 000°35'713.6
2017-Sep-10 17:30N 37°39' W 000°30'713.6
2017-Sep-10 17:00N 37°45' W 000°26'713.7
2017-Sep-10 16:30N 37°51' W 000°21'714.0
2017-Sep-10 16:01N 37°56' W 000°16'12313.7
2017-Sep-10 07:03N 39°38' E 001°11'114.0
2017-Sep-10 06:59N 39°39' E 001°11'714.0
2017-Sep-10 06:30N 39°45' E 001°15'714.2
2017-Sep-10 06:00N 39°52' E 001°19'714.2
2017-Sep-10 05:30N 39°58' E 001°23'714.1
2017-Sep-10 05:00N 40°05' E 001°26'714.2
2017-Sep-10 04:30N 40°11' E 001°30'714.1
2017-Sep-10 04:00N 40°18' E 001°34'714.0
2017-Sep-10 03:30N 40°24' E 001°38'713.6
2017-Sep-10 03:00N 40°30' E 001°42'713.6
2017-Sep-10 02:30N 40°36' E 001°46'713.6
2017-Sep-10 02:01N 40°42' E 001°49'713.6
2017-Sep-10 01:30N 40°49' E 001°53'713.5
2017-Sep-10 01:00N 40°55' E 001°57'713.6
2017-Sep-10 00:30N 41°01' E 002°01'713.2
2017-Sep-10 00:00N 41°07' E 002°04'  
2017-Sep-07 18:29N 41°20' E 002°10'3 4.3
2017-Sep-07 17:48N 41°18' E 002°12'1 0.2
2017-Sep-07 11:28N 41°19' E 002°11'0 0.0
2017-Sep-07 10:58N 41°19' E 002°11'0 0.0
2017-Sep-07 07:49N 41°18' E 002°11'0 0.1
2017-Sep-07 07:19N 41°19' E 002°11'0 0.1
2017-Sep-07 06:59N 41°19' E 002°11'0 0.1
2017-Sep-07 05:09N 41°19' E 002°11'0 0.1
2017-Sep-07 03:54N 41°19' E 002°11'0 0.0
2017-Sep-07 03:24N 41°19' E 002°11'0 0.0
2017-Sep-07 02:54N 41°19' E 002°11'0 0.0
2017-Sep-07 02:30N 41°19' E 002°11'0 0.0
2017-Sep-07 00:24N 41°19' E 002°11'0 0.0
2017-Sep-06 23:57N 41°19' E 002°11'0 0.0
2017-Sep-06 20:06N 41°19' E 002°11'0 0.0
2017-Sep-06 19:45N 41°19' E 002°11'0 0.0
2017-Sep-06 04:18N 41°19' E 002°11'0 0.0
2017-Sep-06 02:48N 41°19' E 002°11'0 0.0
2017-Sep-06 01:30N 41°19' E 002°11'0 0.0
2017-Sep-06 00:42N 41°19' E 002°11'0 0.0
2017-Sep-06 00:18N 41°19' E 002°11'0 0.0
2017-Sep-05 23:54N 41°19' E 002°11'0 0.0
2017-Sep-05 23:30N 41°19' E 002°11'0 0.0
2017-Sep-05 22:54N 41°19' E 002°11'0 0.0
2017-Sep-05 22:24N 41°19' E 002°11'0 0.0
2017-Sep-05 22:00N 41°19' E 002°11'0 0.0
2017-Sep-05 21:24N 41°19' E 002°11'0 0.0
2017-Sep-05 20:54N 41°19' E 002°11'0 0.0
2017-Sep-05 20:09N 41°19' E 002°11'0 0.0
2017-Sep-05 19:00N 41°19' E 002°11'0 0.0
2017-Sep-05 18:27N 41°19' E 002°11'0 0.0
2017-Sep-05 18:00N 41°19' E 002°11'0 0.0
2017-Sep-05 17:30N 41°19' E 002°11'0 0.0
2017-Sep-05 17:00N 41°19' E 002°11'0 0.0
2017-Sep-05 16:27N 41°19' E 002°11'0 0.0
2017-Sep-05 15:36N 41°19' E 002°11'0 0.1
2017-Sep-05 15:30N 41°19' E 002°11'0 0.0
2017-Sep-05 14:54N 41°19' E 002°11'0 0.0
2017-Sep-05 14:27N 41°19' E 002°11'0 0.0
2017-Sep-05 14:00N 41°19' E 002°11'0 0.0
2017-Sep-05 13:25N 41°19' E 002°11'0 0.0
2017-Sep-05 12:59N 41°19' E 002°11'0 0.0
2017-Sep-05 12:30N 41°19' E 002°11'0 0.0
2017-Sep-05 12:00N 41°19' E 002°11'0 0.0
2017-Sep-05 11:29N 41°19' E 002°11'0 0.9
2017-Sep-05 10:59N 41°19' E 002°12'3 5.4
2017-Sep-05 10:29N 41°16' E 002°14'6 9.7
2017-Sep-05 09:53N 41°14' E 002°21'514.0
2017-Sep-05 09:31N 41°12' E 002°28'713.8
2017-Sep-05 09:00N 41°09' E 002°36'713.7
2017-Sep-05 08:29N 41°06' E 002°45'713.4
2017-Sep-05 08:00N 41°03' E 002°52'713.3
2017-Sep-05 07:30N 41°00' E 002°60'713.4
2017-Sep-05 06:57N 40°57' E 003°08'613.4
2017-Sep-05 06:30N 40°54' E 003°16'713.3
2017-Sep-05 06:00N 40°51' E 003°24'612.8
2017-Sep-05 05:30N 40°51' E 003°32'  

Dump ship's entire track history